00:32
Airports
Links
Donate
Help keep this website running!
PayPal
Bitcoin
METAR
VIDP 250000Z 08006KT 2500 BR SCT030 BKN100 27/26 Q0998 NOSIG
Current Weather Conditions at VIDP
IFR 00:00:00 25-07-17
Altimeter:29.47 hg
Temp:27.0°c 81°f
Dew point:26.0°c 79°f
Wind:6 knots, 6.9 mph, 3 m/s, from 80°
Visibility:1.55 statute miles
10000(BKN) Broken
3000(SCT) Scattered
No significant weather changes expected within 2 hours.
Past METAR reports
IFR 23:30:00 24-07-17
Altimeter:29.47 hg
Temp:27.0°c 81°f
Dew point:26.0°c 79°f
Wind:6 knots, 6.9 mph, 3 m/s, from 90°
Visibility:1.55 statute miles
10000(BKN) Broken
3000(SCT) Scattered
No significant weather changes expected within 2 hours.
VIDP 242330Z 09006KT 2500 BR SCT030 BKN100 27/26 Q0998 NOSIG
IFR 23:00:00 24-07-17
Altimeter:29.47 hg
Temp:27.0°c 81°f
Dew point:26.0°c 79°f
Wind:6 knots, 6.9 mph, 3 m/s, from 90°
Visibility:1.55 statute miles
10000(BKN) Broken
3000(SCT) Scattered
No significant weather changes expected within 2 hours.
VIDP 242300Z 09006KT 2500 BR SCT030 BKN100 27/26 Q0998 NOSIG
IFR 22:30:00 24-07-17
Altimeter:29.47 hg
Temp:27.0°c 81°f
Dew point:26.0°c 79°f
Wind:7 knots, 8.1 mph, 4 m/s, from 100°
Visibility:1.55 statute miles
10000(BKN) Broken
3000(SCT) Scattered
No significant weather changes expected within 2 hours.
VIDP 242230Z 10007KT 2500 BR SCT030 BKN100 27/26 Q0998 NOSIG
IFR 22:00:00 24-07-17
Altimeter:29.47 hg
Temp:27.0°c 81°f
Dew point:26.0°c 79°f
Wind:8 knots, 9.2 mph, 4 m/s, from 100°
Visibility:1.55 statute miles
10000(BKN) Broken
3000(SCT) Scattered
No significant weather changes expected within 2 hours.
VIDP 242200Z 10008KT 2500 BR SCT030 BKN100 27/26 Q0998 NOSIG
IFR 21:30:00 24-07-17
Altimeter:29.47 hg
Temp:27.0°c 81°f
Dew point:26.0°c 79°f
Wind:8 knots, 9.2 mph, 4 m/s, from 90°
Visibility:1.55 statute miles
10000(BKN) Broken
3000(SCT) Scattered
No significant weather changes expected within 2 hours.
VIDP 242130Z 09008KT 2500 BR SCT030 BKN100 27/26 Q0998 NOSIG
IFR 21:00:00 24-07-17
Altimeter:29.47 hg
Temp:27.0°c 81°f
Dew point:26.0°c 79°f
Wind:8 knots, 9.2 mph, 4 m/s, from 90°
Visibility:1.55 statute miles
10000(BKN) Broken
3000(SCT) Scattered
No significant weather changes expected within 2 hours.
VIDP 242100Z 09008KT 2500 BR SCT030 BKN100 27/26 Q0998 NOSIG
TAF
No TAF for VIDP
Forecast at VIDP
No Forecast Reports for VIDP